Time;durP1;ratioP1;P1;durP2;ratioP2;P2;SDS_P1;SDS_P2;PMS_P1;PMS_P2;Temp;Humidity;BMP_temperature;BMP_pressure;BME280_temperature;BME280_humidity;BME280_pressure;Samples;Min_cycle;Max_cycle;Signal;HPM_P1;HPM_P2
2021/12/01 00:00:54;;;;;;;274.05;145.95;;;1.90;1.00;;;;;;5103976;28;20131;-87
2021/12/01 00:03:22;;;;;;;258.73;136.63;;;1.70;1.00;;;;;;5093812;28;20046;-87
2021/12/01 00:05:51;;;;;;;205.93;107.97;;;1.70;32.80;;;;;;5108165;28;20123;-86
2021/12/01 00:08:19;;;;;;;215.85;112.95;;;1.80;11.20;;;;;;5111674;28;20051;-87
2021/12/01 00:10:48;;;;;;;228.88;116.43;;;1.80;3.50;;;;;;5102350;28;20499;-82
2021/12/01 00:13:18;;;;;;;218.00;109.80;;;2.00;1.00;;;;;;5111170;28;20055;-86
2021/12/01 00:15:47;;;;;;;191.32;101.90;;;2.00;1.00;;;;;;5106048;28;20048;-86
2021/12/01 00:18:15;;;;;;;181.77;99.35;;;2.10;1.00;;;;;;5103213;28;20044;-87
2021/12/01 00:20:42;;;;;;;190.30;99.88;;;2.20;1.00;;;;;;5105190;28;20134;-87
2021/12/01 00:23:11;;;;;;;182.27;98.97;;;2.20;1.00;;;;;;5090855;28;20412;-85
2021/12/01 00:25:42;;;;;;;166.02;91.20;;;2.30;1.00;;;;;;5090189;28;20150;-87
2021/12/01 00:28:10;;;;;;;180.95;94.03;;;2.40;1.00;;;;;;5101942;28;20059;-85
2021/12/01 00:30:40;;;;;;;166.88;91.72;;;2.40;1.00;;;;;;5111412;28;20028;-83
2021/12/01 00:33:10;;;;;;;124.10;70.85;;;2.50;1.00;;;;;;5087875;28;20025;-86
2021/12/01 00:35:38;;;;;;;119.43;65.30;;;2.60;1.00;;;;;;5093792;28;20033;-83
2021/12/01 00:38:05;;;;;;;117.43;66.50;;;2.60;1.00;;;;;;5081805;28;20020;-79
2021/12/01 00:40:35;;;;;;;124.70;69.20;;;2.60;1.00;;;;;;5070558;28;20064;-85
2021/12/01 00:43:02;;;;;;;136.65;76.57;;;2.50;1.00;;;;;;5070994;28;20067;-87
2021/12/01 00:45:32;;;;;;;151.52;79.38;;;2.50;1.00;;;;;;5083616;28;20040;-87
2021/12/01 00:48:02;;;;;;;137.63;76.47;;;2.50;1.00;;;;;;5101901;28;20036;-86
2021/12/01 00:50:31;;;;;;;165.88;90.38;;;2.50;1.00;;;;;;5082931;28;20103;-86
2021/12/01 00:53:01;;;;;;;156.77;85.57;;;2.50;1.00;;;;;;5101783;28;20044;-86
2021/12/01 00:55:29;;;;;;;148.90;82.55;;;2.50;1.00;;;;;;5101511;28;20465;-87
2021/12/01 00:57:58;;;;;;;148.80;83.15;;;2.50;1.00;;;;;;5099963;28;20040;-85
2021/12/01 01:00:29;;;;;;;149.98;83.97;;;2.30;1.00;;;;;;5083855;28;20048;-87
2021/12/01 01:02:57;;;;;;;131.93;74.38;;;2.40;1.00;;;;;;5099936;28;20479;-86
2021/12/01 01:05:25;;;;;;;139.60;77.07;;;2.40;1.00;;;;;;5100945;28;20126;-85
2021/12/01 01:07:53;;;;;;;138.63;76.43;;;2.50;1.00;;;;;;5080471;28;20051;-85
2021/12/01 01:10:46;;;;;;;129.45;74.60;;;2.60;1.00;;;;;;5101061;28;20044;-85
2021/12/01 01:18:50;;;;;;;144.60;81.03;;;2.60;1.00;;;;;;5103195;28;20036;-88
2021/12/01 01:21:18;;;;;;;139.38;80.13;;;2.60;1.00;;;;;;5101140;28;20056;-86
2021/12/01 01:23:46;;;;;;;131.77;76.25;;;2.70;1.00;;;;;;5105426;28;20043;-86
2021/12/01 01:26:18;;;;;;;195.02;108.70;;;2.70;1.00;;;;;;5105585;28;20108;-87
2021/12/01 01:28:48;;;;;;;187.77;106.40;;;2.60;1.00;;;;;;5105648;28;20131;-86
2021/12/01 01:31:19;;;;;;;179.10;102.72;;;2.60;1.00;;;;;;5105266;28;20055;-86
2021/12/01 01:33:47;;;;;;;155.15;86.20;;;2.60;1.00;;;;;;5102951;28;20063;-85
2021/12/01 01:36:15;;;;;;;154.48;86.60;;;2.60;1.00;;;;;;5104500;28;20052;-86
2021/12/01 01:38:43;;;;;;;161.02;94.18;;;2.60;1.00;;;;;;5086780;28;20419;-87
2021/12/01 01:41:12;;;;;;;158.10;89.47;;;2.60;1.00;;;;;;5107270;28;20056;-86
2021/12/01 01:43:41;;;;;;;151.35;88.55;;;2.50;1.00;;;;;;5084637;28;20044;-86
2021/12/01 01:46:10;;;;;;;144.65;79.97;;;2.50;1.00;;;;;;5102064;28;20048;-84
2021/12/01 01:48:47;;;;;;;145.05;84.93;;;2.50;1.00;;;;;;5092902;28;20553;-84
2021/12/01 01:51:16;;;;;;;138.27;79.25;;;2.40;1.00;;;;;;5101038;28;20044;-84
2021/12/01 01:53:44;;;;;;;130.52;76.40;;;2.40;1.00;;;;;;5088633;28;20109;-86
2021/12/01 01:56:12;;;;;;;127.53;75.63;;;2.50;1.00;;;;;;5114663;28;20042;-86
2021/12/01 01:58:39;;;;;;;121.93;72.15;;;2.50;1.00;;;;;;5105617;28;20048;-86
2021/12/01 02:01:13;;;;;;;115.93;65.82;;;2.50;1.00;;;;;;5087559;28;20108;-86
2021/12/01 02:03:43;;;;;;;119.00;64.30;;;2.50;1.00;;;;;;5110602;28;20043;-85
2021/12/01 02:06:12;;;;;;;112.65;61.00;;;2.40;1.00;;;;;;5118785;28;20071;-86
2021/12/01 02:08:40;;;;;;;108.18;61.08;;;2.40;1.00;;;;;;5103420;28;20036;-84
2021/12/01 02:11:10;;;;;;;105.05;62.03;;;2.40;1.00;;;;;;5084023;28;20044;-84
2021/12/01 02:13:39;;;;;;;101.78;57.38;;;2.50;1.00;;;;;;5102129;28;20033;-83
2021/12/01 02:16:07;;;;;;;100.68;58.22;;;2.50;1.00;;;;;;5085374;28;20048;-85
2021/12/01 02:18:36;;;;;;;111.97;64.05;;;2.60;1.00;;;;;;5097566;28;20043;-85
2021/12/01 02:21:08;;;;;;;112.68;64.47;;;2.50;1.00;;;;;;5121924;28;20048;-84
2021/12/01 02:23:37;;;;;;;114.68;63.72;;;2.50;1.00;;;;;;5121886;28;20065;-82
2021/12/01 02:26:06;;;;;;;115.20;65.90;;;2.60;1.00;;;;;;5121698;28;20032;-82
2021/12/01 02:28:34;;;;;;;113.68;64.40;;;2.70;1.00;;;;;;5122007;28;20063;-81
2021/12/01 02:31:02;;;;;;;105.97;62.72;;;2.70;1.00;;;;;;5122287;28;20083;-82
2021/12/01 02:33:29;;;;;;;111.63;64.82;;;2.80;1.00;;;;;;5121732;28;20079;-82
2021/12/01 02:35:57;;;;;;;105.40;60.38;;;2.80;1.00;;;;;;5104211;28;20051;-83
2021/12/01 02:38:26;;;;;;;103.10;60.72;;;2.80;1.00;;;;;;5122187;28;20083;-81
2021/12/01 02:40:53;;;;;;;105.57;60.15;;;2.70;1.00;;;;;;5121788;28;20092;-82
2021/12/01 02:43:23;;;;;;;108.50;60.58;;;2.80;1.00;;;;;;5121727;28;20044;-82
2021/12/01 02:45:53;;;;;;;104.45;58.90;;;2.80;1.00;;;;;;5121513;28;20020;-81
2021/12/01 02:48:21;;;;;;;102.65;59.72;;;2.80;1.00;;;;;;5121469;28;20028;-83
2021/12/01 02:50:49;;;;;;;101.18;59.15;;;2.80;1.00;;;;;;5110149;28;20048;-87
2021/12/01 02:53:20;;;;;;;98.00;57.28;;;2.80;1.00;;;;;;5107326;28;20459;-87
2021/12/01 02:55:54;;;;;;;93.57;55.53;;;2.80;1.00;;;;;;5107173;28;20060;-87
2021/12/01 02:58:22;;;;;;;100.25;58.58;;;2.80;1.00;;;;;;5098028;28;20075;-85
2021/12/01 03:00:51;;;;;;;98.68;55.70;;;2.80;1.00;;;;;;5118382;28;20056;-84
2021/12/01 03:03:19;;;;;;;103.05;58.08;;;2.80;1.00;;;;;;5120087;28;20020;-87
2021/12/01 03:05:48;;;;;;;108.90;63.30;;;2.80;1.00;;;;;;5107138;28;20104;-87
2021/12/01 03:08:17;;;;;;;94.55;56.15;;;2.80;1.00;;;;;;5088131;28;20052;-86
2021/12/01 03:10:45;;;;;;;99.85;57.80;;;2.80;1.00;;;;;;5080468;28;20059;-87
2021/12/01 03:13:16;;;;;;;107.25;60.47;;;2.90;1.00;;;;;;5106266;28;20035;-87
2021/12/01 03:15:44;;;;;;;101.80;59.05;;;2.90;6.80;;;;;;5106451;28;20467;-84
2021/12/01 03:18:12;;;;;;;97.90;58.40;;;2.90;15.30;;;;;;5102083;28;20046;-85
2021/12/01 03:20:40;;;;;;;111.68;64.95;;;3.00;1.00;;;;;;5084090;28;20059;-85
2021/12/01 03:23:08;;;;;;;103.88;60.78;;;3.00;1.00;;;;;;5104572;28;20040;-86
2021/12/01 03:25:36;;;;;;;109.88;64.15;;;3.00;1.00;;;;;;5086590;28;20051;-86
2021/12/01 03:28:06;;;;;;;125.05;74.68;;;3.00;1.00;;;;;;5080897;28;20066;-84
2021/12/01 03:30:37;;;;;;;110.57;66.43;;;3.00;1.00;;;;;;5099275;28;20096;-84
2021/12/01 03:33:08;;;;;;;96.03;55.88;;;2.80;23.10;;;;;;5080303;28;20052;-85
2021/12/01 03:35:37;;;;;;;90.32;54.25;;;2.80;99.90;;;;;;5081109;28;20048;-85
2021/12/01 03:38:06;;;;;;;102.13;58.13;;;2.70;99.90;;;;;;5102603;28;20467;-86
2021/12/01 03:40:34;;;;;;;102.75;58.88;;;2.60;99.90;;;;;;5083302;28;20040;-87
2021/12/01 03:43:01;;;;;;;94.13;55.25;;;2.60;99.90;;;;;;5101608;28;20078;-86
2021/12/01 03:45:29;;;;;;;109.15;65.18;;;2.50;99.90;;;;;;5083315;28;20048;-85
2021/12/01 03:47:58;;;;;;;117.65;68.20;;;2.50;99.90;;;;;;5101250;28;20055;-86
2021/12/01 03:50:26;;;;;;;122.43;68.03;;;2.20;99.90;;;;;;5101247;28;20044;-86
2021/12/01 03:52:53;;;;;;;125.30;70.88;;;2.20;99.90;;;;;;5101623;28;20047;-86
2021/12/01 03:55:21;;;;;;;118.97;68.40;;;2.20;1.00;;;;;;5104039;28;20047;-87
2021/12/01 03:57:48;;;;;;;117.70;70.07;;;2.20;1.00;;;;;;5104844;28;20081;-86
2021/12/01 04:00:18;;;;;;;134.38;76.88;;;2.10;1.00;;;;;;5106707;28;20052;-86
2021/12/01 04:02:48;;;;;;;122.13;69.78;;;2.10;1.00;;;;;;5089244;28;20047;-87
2021/12/01 04:05:17;;;;;;;114.18;66.55;;;2.10;1.00;;;;;;5118180;28;20054;-82
2021/12/01 04:07:45;;;;;;;122.93;70.55;;;2.00;1.00;;;;;;5116168;28;20062;-87
2021/12/01 04:10:16;;;;;;;119.13;68.47;;;2.00;1.00;;;;;;5102171;28;20067;-87
2021/12/01 04:12:44;;;;;;;118.07;71.00;;;2.00;1.00;;;;;;5119909;28;20055;-83
2021/12/01 04:15:12;;;;;;;132.38;74.13;;;2.00;1.00;;;;;;5119654;28;20054;-83
2021/12/01 04:17:41;;;;;;;110.40;64.60;;;2.00;1.00;;;;;;5119418;28;20031;-85
2021/12/01 04:20:11;;;;;;;116.32;65.75;;;2.00;1.00;;;;;;5119123;28;20055;-86
2021/12/01 04:22:41;;;;;;;68.40;39.05;;;2.00;1.00;;;;;;5118747;28;20044;-86
2021/12/01 04:25:10;;;;;;;84.55;49.50;;;1.80;1.00;;;;;;5101557;28;20027;-85
2021/12/01 04:27:39;;;;;;;96.07;57.08;;;1.80;1.00;;;;;;5101593;28;20024;-85
2021/12/01 04:30:10;;;;;;;109.95;65.15;;;1.90;1.00;;;;;;5118666;28;20036;-85
2021/12/01 04:32:37;;;;;;;103.78;60.78;;;1.90;1.00;;;;;;5117056;28;20044;-86
2021/12/01 04:35:06;;;;;;;94.20;54.25;;;1.90;1.00;;;;;;5098614;28;20035;-85
2021/12/01 04:37:35;;;;;;;89.95;51.03;;;2.00;9.20;;;;;;5117673;28;20032;-83
2021/12/01 04:40:05;;;;;;;89.47;51.42;;;2.00;26.90;;;;;;5119488;28;20020;-83
2021/12/01 04:42:32;;;;;;;80.53;46.47;;;2.00;1.00;;;;;;5102031;28;20046;-85
2021/12/01 04:45:00;;;;;;;81.20;45.65;;;2.00;1.00;;;;;;5119247;28;20024;-80
2021/12/01 04:47:32;;;;;;;83.80;46.08;;;2.00;27.40;;;;;;5119557;28;20048;-82
2021/12/01 04:49:59;;;;;;;95.07;54.88;;;2.00;1.00;;;;;;5101242;28;20038;-81
2021/12/01 04:52:27;;;;;;;98.82;54.92;;;2.00;1.00;;;;;;5119476;28;20036;-84
2021/12/01 04:54:54;;;;;;;96.70;54.05;;;2.00;13.00;;;;;;5101658;28;20027;-80
2021/12/01 04:57:23;;;;;;;93.28;55.08;;;2.00;6.40;;;;;;5118672;28;20036;-82
2021/12/01 04:59:51;;;;;;;94.85;55.10;;;2.00;1.00;;;;;;5119396;28;20028;-82
2021/12/01 05:02:19;;;;;;;99.82;60.30;;;1.90;1.00;;;;;;5101639;28;20055;-83
2021/12/01 05:04:46;;;;;;;110.13;62.63;;;1.90;50.20;;;;;;5118348;28;20044;-79
2021/12/01 05:07:14;;;;;;;110.68;64.47;;;1.90;22.40;;;;;;5096463;28;20043;-85
2021/12/01 05:09:42;;;;;;;122.20;69.47;;;1.80;93.80;;;;;;5098419;28;20048;-85
2021/12/01 05:12:10;;;;;;;128.18;73.70;;;1.70;99.90;;;;;;5097825;28;20079;-81
2021/12/01 05:14:39;;;;;;;120.78;73.57;;;1.80;99.90;;;;;;5093984;28;20036;-79
2021/12/01 05:17:08;;;;;;;125.97;75.38;;;1.80;99.90;;;;;;5108597;28;20040;-87
2021/12/01 05:19:36;;;;;;;125.00;75.13;;;1.70;99.90;;;;;;5107297;28;20063;-87
2021/12/01 05:22:05;;;;;;;125.50;73.88;;;1.70;99.90;;;;;;5112012;28;20086;-87
2021/12/01 05:24:33;;;;;;;110.60;64.07;;;1.70;99.90;;;;;;5111282;28;20040;-87
2021/12/01 05:27:00;;;;;;;116.25;68.97;;;1.60;99.90;;;;;;5110947;28;20024;-88
2021/12/01 05:29:28;;;;;;;110.00;66.32;;;1.50;99.90;;;;;;5091343;28;20055;-86
2021/12/01 05:31:57;;;;;;;244.70;138.65;;;1.50;1.00;;;;;;5115526;28;20039;-87
2021/12/01 05:34:25;;;;;;;183.52;108.22;;;1.50;1.00;;;;;;5096547;28;20070;-87
2021/12/01 05:36:54;;;;;;;176.82;100.00;;;1.40;1.00;;;;;;5093833;28;20075;-86
2021/12/01 05:39:22;;;;;;;181.00;103.55;;;1.30;1.00;;;;;;5084710;28;20047;-87
2021/12/01 05:41:50;;;;;;;236.23;125.90;;;1.40;1.00;;;;;;5080609;28;20048;-86
2021/12/01 05:44:17;;;;;;;207.75;116.85;;;1.40;1.00;;;;;;5104645;28;20048;-86
2021/12/01 05:46:45;;;;;;;262.15;146.85;;;1.40;1.00;;;;;;5116057;28;20101;-87
2021/12/01 05:49:14;;;;;;;174.40;97.35;;;1.40;1.00;;;;;;5116769;28;20096;-85
2021/12/01 05:51:42;;;;;;;138.65;79.07;;;1.50;1.00;;;;;;5117864;28;20028;-86
2021/12/01 05:54:10;;;;;;;154.65;86.80;;;1.60;1.00;;;;;;5118335;28;20032;-87
2021/12/01 05:56:37;;;;;;;191.55;104.90;;;1.50;1.00;;;;;;5099057;28;20038;-86
2021/12/01 05:59:05;;;;;;;203.07;115.57;;;1.60;1.00;;;;;;5115654;28;20070;-83
2021/12/01 06:01:32;;;;;;;192.95;109.05;;;1.60;1.00;;;;;;5109895;28;20040;-85
2021/12/01 06:04:01;;;;;;;154.98;90.82;;;1.50;1.00;;;;;;5115178;28;20031;-87
2021/12/01 06:06:30;;;;;;;162.48;96.97;;;1.50;1.00;;;;;;5115978;28;20032;-86
2021/12/01 06:08:57;;;;;;;151.38;88.38;;;1.40;1.00;;;;;;5116466;28;20040;-86
2021/12/01 06:11:25;;;;;;;145.93;86.38;;;1.40;1.00;;;;;;5116300;28;20040;-86
2021/12/01 06:13:54;;;;;;;138.32;84.57;;;1.40;1.00;;;;;;5113293;28;20040;-87
2021/12/01 06:16:22;;;;;;;160.52;96.28;;;1.30;99.90;;;;;;5101063;28;20051;-87
2021/12/01 06:18:50;;;;;;;142.38;84.93;;;1.30;1.00;;;;;;5083214;28;20047;-88
2021/12/01 06:21:19;;;;;;;145.95;85.28;;;1.40;1.00;;;;;;5101549;28;20056;-86
2021/12/01 06:23:48;;;;;;;135.75;82.97;;;1.40;1.00;;;;;;5084504;28;20083;-88
2021/12/01 06:26:16;;;;;;;145.57;88.00;;;1.50;1.00;;;;;;5084092;28;20040;-87
2021/12/01 06:28:43;;;;;;;164.52;103.22;;;1.50;1.00;;;;;;5103587;28;20115;-86
2021/12/01 06:31:11;;;;;;;147.35;89.55;;;1.60;1.00;;;;;;5101815;28;20060;-88
2021/12/01 06:33:38;;;;;;;151.00;93.50;;;1.60;1.00;;;;;;5111733;28;20039;-88
2021/12/01 06:36:06;;;;;;;147.88;88.63;;;1.80;1.00;;;;;;5090047;28;20173;-84
2021/12/01 06:38:34;;;;;;;146.70;88.47;;;2.00;1.00;;;;;;5088482;28;20052;-88
2021/12/01 06:41:02;;;;;;;142.90;85.65;;;2.00;99.90;;;;;;5085970;28;20040;-87
2021/12/01 06:43:30;;;;;;;139.60;85.05;;;2.10;99.90;;;;;;5108181;28;20032;-87
2021/12/01 06:45:57;;;;;;;153.80;90.25;;;2.10;99.90;;;;;;5108023;28;20036;-87
2021/12/01 06:48:25;;;;;;;140.98;87.53;;;2.10;99.90;;;;;;5110358;28;20068;-87
2021/12/01 06:50:52;;;;;;;134.77;79.25;;;2.20;90.70;;;;;;5106731;28;20104;-88
2021/12/01 06:53:20;;;;;;;146.75;88.10;;;2.20;45.30;;;;;;5106080;28;20044;-88
2021/12/01 06:55:47;;;;;;;140.40;86.63;;;2.30;1.00;;;;;;5105953;28;20036;-87
2021/12/01 06:58:16;;;;;;;142.25;85.75;;;2.30;1.00;;;;;;5088353;28;20052;-88
2021/12/01 07:00:44;;;;;;;138.43;85.03;;;2.30;1.00;;;;;;5091685;28;20105;-88
2021/12/01 07:03:11;;;;;;;143.82;88.30;;;2.40;1.00;;;;;;5108324;28;20469;-84
2021/12/01 07:05:39;;;;;;;141.07;86.32;;;2.50;1.00;;;;;;5111030;28;20046;-88
2021/12/01 07:08:06;;;;;;;142.15;85.85;;;2.70;1.00;;;;;;5093167;28;20055;-89
2021/12/01 07:10:34;;;;;;;160.45;95.78;;;2.80;1.00;;;;;;5112512;28;20450;-87
2021/12/01 07:13:01;;;;;;;162.88;97.90;;;2.90;1.00;;;;;;5113731;28;20064;-86
2021/12/01 07:15:30;;;;;;;165.35;101.47;;;3.00;1.00;;;;;;5113418;28;20043;-86
2021/12/01 07:17:58;;;;;;;135.82;82.35;;;3.10;1.00;;;;;;5114341;28;20066;-87
2021/12/01 07:20:25;;;;;;;176.75;103.13;;;3.20;1.00;;;;;;5095154;28;20083;-86
2021/12/01 07:22:53;;;;;;;168.95;100.88;;;3.30;99.90;;;;;;5094386;28;20139;-84
2021/12/01 07:25:20;;;;;;;174.07;105.53;;;3.40;99.90;;;;;;5112961;28;20040;-86
2021/12/01 07:27:48;;;;;;;169.20;101.43;;;3.40;99.90;;;;;;5102668;28;20071;-85
2021/12/01 07:30:16;;;;;;;165.73;99.32;;;3.50;99.90;;;;;;5084882;28;20419;-85
2021/12/01 07:32:44;;;;;;;169.43;101.50;;;3.80;99.90;;;;;;5115378;28;20093;-85
2021/12/01 07:35:12;;;;;;;206.23;119.40;;;4.00;99.90;;;;;;5120211;28;20103;-83
2021/12/01 07:37:39;;;;;;;196.73;117.50;;;4.20;37.40;;;;;;5091392;28;20139;-85
2021/12/01 07:40:08;;;;;;;192.48;115.15;;;4.30;1.00;;;;;;5077505;28;20052;-86
2021/12/01 07:42:35;;;;;;;184.75;114.72;;;4.50;1.00;;;;;;5088085;28;20165;-86
2021/12/01 07:45:03;;;;;;;209.13;120.97;;;4.70;1.00;;;;;;5100838;28;20095;-83
2021/12/01 07:47:30;;;;;;;201.13;123.15;;;4.90;1.00;;;;;;5101686;28;20050;-79
2021/12/01 07:49:59;;;;;;;217.50;131.38;;;5.00;1.00;;;;;;5120150;27;20084;-81
2021/12/01 07:52:27;;;;;;;218.90;134.85;;;5.10;1.00;;;;;;5119642;27;20024;-79
2021/12/01 07:54:54;;;;;;;222.40;132.10;;;5.20;1.00;;;;;;5119433;28;20043;-80
2021/12/01 07:57:23;;;;;;;219.93;131.30;;;5.20;1.00;;;;;;5102077;28;20103;-84
2021/12/01 07:59:50;;;;;;;189.55;110.55;;;5.10;1.00;;;;;;5121266;28;20162;-83
2021/12/01 08:02:18;;;;;;;215.77;127.35;;;4.90;1.00;;;;;;5100456;28;20044;-82
2021/12/01 08:04:45;;;;;;;226.73;135.80;;;4.70;1.00;;;;;;5101536;28;20135;-79
2021/12/01 08:07:14;;;;;;;229.63;134.75;;;4.60;1.00;;;;;;5102044;28;20047;-83
2021/12/01 08:09:42;;;;;;;209.95;126.20;;;4.60;1.00;;;;;;5090670;28;20040;-84
2021/12/01 08:12:11;;;;;;;198.45;117.53;;;4.70;1.00;;;;;;5099072;28;20163;-81
2021/12/01 08:14:39;;;;;;;199.00;121.05;;;4.90;1.00;;;;;;5101176;28;20100;-81
2021/12/01 08:17:07;;;;;;;205.93;120.88;;;5.00;1.00;;;;;;5102489;28;20048;-85
2021/12/01 08:19:34;;;;;;;186.15;110.85;;;5.20;1.00;;;;;;5102618;28;20495;-83
2021/12/01 08:22:03;;;;;;;195.93;116.07;;;5.50;1.00;;;;;;5105785;28;20094;-83
2021/12/01 08:24:32;;;;;;;137.07;81.32;;;5.70;1.00;;;;;;5082788;28;20055;-86
2021/12/01 08:27:00;;;;;;;146.20;87.22;;;5.90;1.00;;;;;;5098017;28;20047;-83
2021/12/01 08:29:27;;;;;;;166.52;99.43;;;5.90;1.00;;;;;;5098552;28;20093;-82
2021/12/01 08:31:54;;;;;;;160.88;97.60;;;5.90;1.00;;;;;;5098141;28;20674;-83
2021/12/01 08:34:22;;;;;;;133.35;85.38;;;5.90;1.00;;;;;;5102977;28;20058;-81
2021/12/01 08:36:49;;;;;;;155.82;94.00;;;6.00;1.00;;;;;;5081976;28;20112;-84
2021/12/01 08:39:17;;;;;;;155.07;94.55;;;6.00;1.00;;;;;;5106335;28;20028;-80
2021/12/01 08:41:46;;;;;;;180.07;106.18;;;6.30;1.00;;;;;;5111541;28;20040;-81
2021/12/01 08:44:13;;;;;;;175.65;107.43;;;6.70;1.00;;;;;;5111041;28;20067;-83
2021/12/01 08:46:41;;;;;;;156.18;94.85;;;7.00;1.00;;;;;;5091463;28;20040;-82
2021/12/01 08:49:08;;;;;;;166.80;97.70;;;7.40;1.00;;;;;;5110599;28;20108;-81
2021/12/01 08:51:36;;;;;;;165.35;98.07;;;7.60;99.90;;;;;;5114460;28;20052;-82
2021/12/01 08:54:04;;;;;;;155.48;95.45;;;7.70;99.90;;;;;;5115463;28;20040;-80
2021/12/01 08:56:31;;;;;;;151.88;94.55;;;7.90;99.90;;;;;;5115448;28;20040;-80
2021/12/01 08:59:00;;;;;;;146.23;92.68;;;8.10;99.90;;;;;;5114365;28;20050;-80
2021/12/01 09:01:28;;;;;;;157.13;93.97;;;8.30;99.90;;;;;;5114228;28;20058;-82
2021/12/01 09:03:56;;;;;;;150.52;89.80;;;8.40;99.90;;;;;;5114672;28;20040;-79
2021/12/01 09:06:23;;;;;;;146.65;90.50;;;8.50;99.90;;;;;;5097390;28;20032;-80
2021/12/01 09:08:50;;;;;;;128.18;81.65;;;8.60;99.90;;;;;;5099730;28;20044;-79
2021/12/01 09:11:18;;;;;;;121.03;76.35;;;8.70;99.90;;;;;;5118180;28;20039;-79
2021/12/01 09:13:46;;;;;;;124.03;75.50;;;8.80;99.90;;;;;;5118504;28;20087;-78
2021/12/01 09:16:15;;;;;;;129.70;82.32;;;9.10;99.90;;;;;;5118163;28;20036;-79
2021/12/01 09:18:42;;;;;;;125.88;81.35;;;9.40;99.90;;;;;;5100458;28;20058;-81
2021/12/01 09:21:10;;;;;;;132.93;81.45;;;9.70;99.90;;;;;;5110055;28;20082;-80
2021/12/01 09:23:37;;;;;;;138.38;84.50;;;9.70;99.90;;;;;;5089961;28;20059;-81
2021/12/01 09:26:05;;;;;;;138.80;86.18;;;9.70;99.90;;;;;;5106892;28;20044;-81
2021/12/01 09:28:33;;;;;;;144.25;91.05;;;9.60;99.90;;;;;;5085298;28;20504;-81
2021/12/01 09:31:00;;;;;;;132.63;88.32;;;9.60;99.90;;;;;;5067467;28;20043;-79
2021/12/01 09:33:30;;;;;;;135.60;87.72;;;9.80;99.90;;;;;;5102370;28;20039;-80
2021/12/01 09:35:57;;;;;;;134.23;85.50;;;10.10;99.90;;;;;;5100596;28;20526;-82
2021/12/01 09:38:26;;;;;;;134.57;84.43;;;10.40;99.90;;;;;;5100810;28;20059;-82
2021/12/01 09:40:57;;;;;;;147.40;89.85;;;10.60;94.10;;;;;;5103320;28;20055;-80
2021/12/01 09:43:27;;;;;;;149.68;93.07;;;10.90;73.90;;;;;;5073957;28;20436;-82
2021/12/01 09:45:55;;;;;;;133.25;83.63;;;11.20;54.80;;;;;;5101674;28;20048;-80
2021/12/01 09:48:23;;;;;;;127.95;82.05;;;11.20;33.10;;;;;;5101562;28;20131;-81
2021/12/01 09:50:52;;;;;;;146.13;87.10;;;11.20;21.90;;;;;;5082959;28;20056;-81
2021/12/01 09:53:20;;;;;;;129.98;82.72;;;11.20;17.50;;;;;;5102088;28;20048;-80
2021/12/01 09:55:48;;;;;;;129.38;81.47;;;11.10;9.30;;;;;;5082646;28;20069;-82
2021/12/01 09:58:19;;;;;;;129.50;80.55;;;11.10;3.30;;;;;;5100922;28;20040;-80
2021/12/01 10:00:50;;;;;;;119.65;70.75;;;11.00;1.30;;;;;;5105176;28;20048;-82
2021/12/01 10:03:18;;;;;;;113.13;69.00;;;10.90;1.00;;;;;;5086982;28;20044;-81
2021/12/01 10:06:06;;;;;;;115.03;67.70;;;10.80;6.70;;;;;;5106712;28;20036;-81
2021/12/01 10:08:37;;;;;;;103.65;63.92;;;10.70;1.00;;;;;;5106705;28;20048;-81
2021/12/01 10:11:07;;;;;;;97.82;57.50;;;10.70;1.00;;;;;;5103588;28;20067;-81
2021/12/01 10:13:37;;;;;;;111.13;59.42;;;10.70;1.00;;;;;;5101468;28;20085;-82
2021/12/01 10:16:07;;;;;;;81.47;48.15;;;10.70;1.00;;;;;;5101183;28;20106;-82
2021/12/01 10:18:40;;;;;;;69.88;41.90;;;10.70;1.00;;;;;;5104773;28;20040;-80
2021/12/01 10:21:11;;;;;;;66.32;33.65;;;10.70;1.00;;;;;;5085389;28;20124;-81
2021/12/01 10:23:45;;;;;;;48.95;27.33;;;10.70;1.00;;;;;;5103385;28;20483;-82
2021/12/01 10:26:16;;;;;;;40.03;23.08;;;10.80;1.00;;;;;;5084870;28;20407;-82
2021/12/01 10:28:45;;;;;;;46.90;25.02;;;10.80;1.00;;;;;;5103628;28;20119;-82
2021/12/01 10:31:14;;;;;;;50.78;27.10;;;10.90;1.00;;;;;;5103838;28;20055;-81
2021/12/01 10:33:43;;;;;;;52.97;28.58;;;10.90;1.00;;;;;;5106047;28;20036;-81
2021/12/01 10:36:12;;;;;;;50.50;29.25;;;11.00;1.00;;;;;;5086262;28;20443;-81
2021/12/01 10:38:45;;;;;;;49.60;28.70;;;11.00;1.00;;;;;;5105255;28;20384;-81
2021/12/01 10:41:16;;;;;;;49.95;28.73;;;11.10;1.00;;;;;;5103580;28;20040;-81
2021/12/01 10:43:46;;;;;;;50.05;26.90;;;11.20;1.00;;;;;;5104483;28;20048;-83
2021/12/01 10:46:16;;;;;;;36.75;22.55;;;11.30;1.00;;;;;;5084066;28;20119;-82
2021/12/01 10:48:44;;;;;;;37.67;22.40;;;11.40;1.00;;;;;;5103115;28;20044;-82
2021/12/01 10:51:31;;;;;;;37.38;23.65;;;11.40;1.00;;;;;;5086447;28;20048;-81
2021/12/01 10:54:00;;;;;;;33.95;19.38;;;11.40;1.00;;;;;;5090888;28;20043;-80
2021/12/01 10:56:28;;;;;;;31.85;17.90;;;11.50;1.00;;;;;;5099004;28;20111;-80
2021/12/01 10:58:56;;;;;;;15.98;8.63;;;11.60;1.00;;;;;;5114564;28;20063;-82
2021/12/01 11:01:25;;;;;;;15.15;7.95;;;11.80;1.00;;;;;;5120153;28;20157;-81
2021/12/01 11:03:53;;;;;;;12.30;7.65;;;11.90;1.00;;;;;;5098769;28;20167;-82
2021/12/01 11:06:22;;;;;;;14.20;8.35;;;11.90;1.00;;;;;;5089092;28;20063;-81
2021/12/01 11:08:55;;;;;;;12.00;6.55;;;11.90;1.00;;;;;;5107672;28;20468;-81
2021/12/01 11:11:26;;;;;;;9.90;5.97;;;12.00;1.00;;;;;;5109196;28;20047;-82
2021/12/01 11:13:54;;;;;;;10.57;5.63;;;12.10;1.00;;;;;;5111154;28;20036;-83
2021/12/01 11:16:22;;;;;;;8.05;4.93;;;12.20;1.00;;;;;;5118233;28;20162;-82
2021/12/01 11:18:52;;;;;;;9.05;4.10;;;12.20;1.00;;;;;;5101570;28;20070;-82
2021/12/01 11:21:22;;;;;;;9.50;4.35;;;12.20;1.00;;;;;;5120451;28;20036;-80
2021/12/01 11:23:51;;;;;;;9.27;4.30;;;12.20;1.00;;;;;;5120248;28;20052;-80
2021/12/01 11:26:21;;;;;;;9.88;5.22;;;12.20;1.00;;;;;;5118944;28;20043;-81
2021/12/01 11:28:51;;;;;;;21.25;11.35;;;12.20;1.00;;;;;;5117892;28;20036;-81
2021/12/01 11:31:22;;;;;;;12.57;3.90;;;12.30;1.00;;;;;;5101002;28;20039;-81
2021/12/01 11:33:54;;;;;;;8.80;3.83;;;12.30;1.00;;;;;;5102404;28;20028;-79
2021/12/01 11:36:25;;;;;;;10.00;4.13;;;12.30;1.00;;;;;;5100894;28;20135;-81
2021/12/01 11:38:54;;;;;;;13.38;4.45;;;12.30;1.00;;;;;;5118715;28;20070;-83
2021/12/01 11:41:23;;;;;;;10.95;4.63;;;12.40;1.00;;;;;;5101984;28;20050;-83
2021/12/01 11:43:52;;;;;;;7.85;3.03;;;12.40;1.00;;;;;;5117314;28;20043;-80
2021/12/01 11:46:20;;;;;;;8.63;3.60;;;12.40;1.00;;;;;;5096915;28;20027;-82
2021/12/01 11:48:51;;;;;;;9.02;3.95;;;12.40;1.00;;;;;;5121842;28;20036;-81
2021/12/01 11:51:22;;;;;;;14.13;3.88;;;12.40;1.00;;;;;;5105242;28;20063;-82
2021/12/01 11:53:54;;;;;;;9.77;3.45;;;12.40;1.00;;;;;;5097227;28;20102;-82
2021/12/01 11:56:26;;;;;;;13.45;5.18;;;12.40;1.00;;;;;;5094337;28;20036;-84
2021/12/01 11:59:05;;;;;;;12.32;5.20;;;12.40;1.00;;;;;;5098009;28;20040;-83
2021/12/01 12:01:44;;;;;;;10.63;4.95;;;12.40;1.00;;;;;;5105190;28;20056;-82
2021/12/01 12:04:42;;;;;;;10.40;3.50;;;12.40;1.00;;;;;;5102245;28;20468;-83
2021/12/01 12:07:12;;;;;;;11.38;4.28;;;12.40;1.00;;;;;;5102162;28;20502;-82
2021/12/01 12:09:41;;;;;;;9.38;3.58;;;12.40;1.00;;;;;;5101553;28;20044;-81
2021/12/01 12:12:11;;;;;;;6.22;2.88;;;12.40;1.00;;;;;;5103719;28;20048;-80
2021/12/01 12:14:50;;;;;;;9.77;3.97;;;12.40;1.00;;;;;;5112268;28;20130;-80
2021/12/01 12:17:19;;;;;;;6.53;3.60;;;12.40;1.00;;;;;;5087473;28;20108;-81
2021/12/01 12:19:55;;;;;;;9.38;3.20;;;12.40;1.00;;;;;;5096073;28;20028;-81
2021/12/01 12:22:29;;;;;;;12.00;3.88;;;12.40;1.00;;;;;;5096577;28;20116;-82
2021/12/01 12:24:57;;;;;;;8.52;3.45;;;12.40;1.00;;;;;;5110368;28;20099;-81
2021/12/01 12:27:40;;;;;;;5.70;2.80;;;12.30;1.00;;;;;;5090799;28;20044;-81
2021/12/01 12:30:15;;;;;;;10.15;3.40;;;12.30;1.00;;;;;;5107935;28;20050;-80
2021/12/01 12:32:46;;;;;;;6.70;3.30;;;12.30;1.00;;;;;;5091630;28;20062;-82
2021/12/01 12:35:16;;;;;;;6.72;3.45;;;12.30;1.00;;;;;;5107178;28;20044;-82
2021/12/01 12:37:45;;;;;;;14.57;3.45;;;12.40;1.00;;;;;;5111995;28;20044;-82
2021/12/01 12:40:32;;;;;;;8.60;3.25;;;12.30;1.00;;;;;;5114008;28;20028;-83
2021/12/01 12:43:07;;;;;;;7.38;3.40;;;12.30;1.00;;;;;;5096390;28;20048;-82
2021/12/01 12:45:37;;;;;;;8.80;3.47;;;12.30;1.00;;;;;;5093823;28;20048;-83
2021/12/01 12:48:27;;;;;;;7.78;2.88;;;12.30;1.00;;;;;;5112887;28;20096;-83
2021/12/01 12:51:12;;;;;;;8.05;4.65;;;12.30;1.00;;;;;;5113088;28;20040;-83